sensor_id;sensor_type;location;lat;lon;timestamp;P1;P2;P0
76238;PMS7003;65043;48.392;-4.472;2024-01-30T00:00:54;1.75;0.00;0.00
76238;PMS7003;65043;48.392;-4.472;2024-01-30T00:03:19;1.00;0.00;0.00
76238;PMS7003;65043;48.392;-4.472;2024-01-30T00:05:45;0.25;0.00;0.00
76238;PMS7003;65043;48.392;-4.472;2024-01-30T00:08:10;1.00;1.00;0.00
76238;PMS7003;65043;48.392;-4.472;2024-01-30T00:10:36;1.00;0.00;0.00
76238;PMS7003;65043;48.392;-4.472;2024-01-30T00:13:01;1.00;1.00;0.00
76238;PMS7003;65043;48.392;-4.472;2024-01-30T00:15:27;2.00;0.00;0.00
76238;PMS7003;65043;48.392;-4.472;2024-01-30T00:17:53;1.00;1.00;0.00
76238;PMS7003;65043;48.392;-4.472;2024-01-30T00:20:18;1.00;1.00;0.00
76238;PMS7003;65043;48.392;-4.472;2024-01-30T00:22:44;1.00;0.00;0.00
76238;PMS7003;65043;48.392;-4.472;2024-01-30T00:25:09;1.00;1.00;0.00
76238;PMS7003;65043;48.392;-4.472;2024-01-30T00:27:35;0.00;0.00;0.00
76238;PMS7003;65043;48.392;-4.472;2024-01-30T00:30:00;2.00;0.00;0.00
76238;PMS7003;65043;48.392;-4.472;2024-01-30T00:32:26;1.00;1.00;0.50
76238;PMS7003;65043;48.392;-4.472;2024-01-30T00:34:51;0.00;0.00;0.00
76238;PMS7003;65043;48.392;-4.472;2024-01-30T00:37:17;0.00;0.00;0.00
76238;PMS7003;65043;48.392;-4.472;2024-01-30T00:39:42;0.25;0.00;0.00
76238;PMS7003;65043;48.392;-4.472;2024-01-30T00:42:08;0.00;0.00;0.00
76238;PMS7003;65043;48.392;-4.472;2024-01-30T00:44:36;0.00;0.00;0.00
76238;PMS7003;65043;48.392;-4.472;2024-01-30T00:47:04;1.50;0.00;0.00
76238;PMS7003;65043;48.392;-4.472;2024-01-30T00:49:30;1.00;0.00;0.00
76238;PMS7003;65043;48.392;-4.472;2024-01-30T00:51:56;0.00;0.00;0.00
76238;PMS7003;65043;48.392;-4.472;2024-01-30T00:54:21;0.00;0.00;0.00
76238;PMS7003;65043;48.392;-4.472;2024-01-30T00:56:47;0.25;0.25;0.00
76238;PMS7003;65043;48.392;-4.472;2024-01-30T00:59:12;0.00;0.00;0.00
76238;PMS7003;65043;48.392;-4.472;2024-01-30T01:01:38;0.00;0.00;0.00
76238;PMS7003;65043;48.392;-4.472;2024-01-30T01:04:03;0.00;0.00;0.00
76238;PMS7003;65043;48.392;-4.472;2024-01-30T01:06:29;0.00;0.00;0.00
76238;PMS7003;65043;48.392;-4.472;2024-01-30T01:08:54;0.00;0.00;0.00
76238;PMS7003;65043;48.392;-4.472;2024-01-30T01:11:20;0.00;0.00;0.00
76238;PMS7003;65043;48.392;-4.472;2024-01-30T01:13:45;0.00;0.00;0.00
76238;PMS7003;65043;48.392;-4.472;2024-01-30T01:16:10;1.25;0.00;0.00
76238;PMS7003;65043;48.392;-4.472;2024-01-30T01:18:36;1.50;1.25;0.00
76238;PMS7003;65043;48.392;-4.472;2024-01-30T01:21:01;2.00;1.00;0.00
76238;PMS7003;65043;48.392;-4.472;2024-01-30T01:23:27;0.00;0.00;0.00
76238;PMS7003;65043;48.392;-4.472;2024-01-30T01:25:52;0.00;0.00;0.00
76238;PMS7003;65043;48.392;-4.472;2024-01-30T01:28:17;0.00;0.00;0.00
76238;PMS7003;65043;48.392;-4.472;2024-01-30T01:30:43;0.75;0.75;0.00
76238;PMS7003;65043;48.392;-4.472;2024-01-30T01:33:09;0.00;0.00;0.00
76238;PMS7003;65043;48.392;-4.472;2024-01-30T01:35:35;0.00;0.00;0.00
76238;PMS7003;65043;48.392;-4.472;2024-01-30T01:38:00;2.75;1.00;0.00
76238;PMS7003;65043;48.392;-4.472;2024-01-30T01:40:27;0.00;0.00;0.00
76238;PMS7003;65043;48.392;-4.472;2024-01-30T01:42:53;0.50;0.25;0.00
76238;PMS7003;65043;48.392;-4.472;2024-01-30T01:45:20;1.00;0.00;0.00
76238;PMS7003;65043;48.392;-4.472;2024-01-30T01:47:52;2.50;0.00;0.00
76238;PMS7003;65043;48.392;-4.472;2024-01-30T01:50:18;0.00;0.00;0.00
76238;PMS7003;65043;48.392;-4.472;2024-01-30T01:52:49;0.25;0.25;0.00
76238;PMS7003;65043;48.392;-4.472;2024-01-30T01:55:15;0.00;0.00;0.00
76238;PMS7003;65043;48.392;-4.472;2024-01-30T01:57:43;0.75;0.75;0.00
76238;PMS7003;65043;48.392;-4.472;2024-01-30T02:00:10;0.00;0.00;0.00
76238;PMS7003;65043;48.392;-4.472;2024-01-30T02:02:36;0.00;0.00;0.00
76238;PMS7003;65043;48.392;-4.472;2024-01-30T02:05:02;0.00;0.00;0.00
76238;PMS7003;65043;48.392;-4.472;2024-01-30T02:07:28;0.00;0.00;0.00
76238;PMS7003;65043;48.392;-4.472;2024-01-30T02:09:53;0.00;0.00;0.00
76238;PMS7003;65043;48.392;-4.472;2024-01-30T02:12:20;1.50;0.00;0.00
76238;PMS7003;65043;48.392;-4.472;2024-01-30T02:14:46;2.00;0.00;0.00
76238;PMS7003;65043;48.392;-4.472;2024-01-30T02:17:12;0.00;0.00;0.00
76238;PMS7003;65043;48.392;-4.472;2024-01-30T02:19:38;0.00;0.00;0.00
76238;PMS7003;65043;48.392;-4.472;2024-01-30T02:22:04;0.00;0.00;0.00
76238;PMS7003;65043;48.392;-4.472;2024-01-30T02:24:30;0.00;0.00;0.00
76238;PMS7003;65043;48.392;-4.472;2024-01-30T02:26:56;2.25;1.00;0.00
76238;PMS7003;65043;48.392;-4.472;2024-01-30T02:29:21;5.75;2.75;2.00
76238;PMS7003;65043;48.392;-4.472;2024-01-30T02:31:47;1.50;1.50;1.00
76238;PMS7003;65043;48.392;-4.472;2024-01-30T02:34:13;6.00;3.00;2.00
76238;PMS7003;65043;48.392;-4.472;2024-01-30T02:36:42;4.50;3.00;2.00
76238;PMS7003;65043;48.392;-4.472;2024-01-30T02:39:08;5.00;2.00;2.00
76238;PMS7003;65043;48.392;-4.472;2024-01-30T02:41:34;3.00;3.00;2.00
76238;PMS7003;65043;48.392;-4.472;2024-01-30T02:44:00;3.50;3.50;2.00
76238;PMS7003;65043;48.392;-4.472;2024-01-30T02:46:26;4.75;2.00;1.00
76238;PMS7003;65043;48.392;-4.472;2024-01-30T02:48:51;1.75;1.75;1.00
76238;PMS7003;65043;48.392;-4.472;2024-01-30T02:51:17;3.75;2.75;2.00
76238;PMS7003;65043;48.392;-4.472;2024-01-30T02:53:42;2.50;1.75;1.00
76238;PMS7003;65043;48.392;-4.472;2024-01-30T02:56:07;1.25;1.00;1.00
76238;PMS7003;65043;48.392;-4.472;2024-01-30T02:58:35;2.25;2.25;1.00
76238;PMS7003;65043;48.392;-4.472;2024-01-30T03:01:01;2.00;0.75;0.25
76238;PMS7003;65043;48.392;-4.472;2024-01-30T03:03:27;0.50;0.50;0.00
76238;PMS7003;65043;48.392;-4.472;2024-01-30T03:05:53;0.00;0.00;0.00
76238;PMS7003;65043;48.392;-4.472;2024-01-30T03:08:18;1.50;0.00;0.00
76238;PMS7003;65043;48.392;-4.472;2024-01-30T03:10:44;1.00;1.00;0.00
76238;PMS7003;65043;48.392;-4.472;2024-01-30T03:13:09;0.50;0.00;0.00
76238;PMS7003;65043;48.392;-4.472;2024-01-30T03:15:34;0.00;0.00;0.00
76238;PMS7003;65043;48.392;-4.472;2024-01-30T03:18:01;1.00;0.00;0.00
76238;PMS7003;65043;48.392;-4.472;2024-01-30T03:20:28;0.00;0.00;0.00
76238;PMS7003;65043;48.392;-4.472;2024-01-30T03:22:54;0.00;0.00;0.00
76238;PMS7003;65043;48.392;-4.472;2024-01-30T03:25:21;1.00;0.00;0.00
76238;PMS7003;65043;48.392;-4.472;2024-01-30T03:27:46;0.00;0.00;0.00
76238;PMS7003;65043;48.392;-4.472;2024-01-30T03:30:12;0.00;0.00;0.00
76238;PMS7003;65043;48.392;-4.472;2024-01-30T03:32:37;0.00;0.00;0.00
76238;PMS7003;65043;48.392;-4.472;2024-01-30T03:35:03;0.00;0.00;0.00
76238;PMS7003;65043;48.392;-4.472;2024-01-30T03:37:29;0.00;0.00;0.00
76238;PMS7003;65043;48.392;-4.472;2024-01-30T03:39:54;0.00;0.00;0.00
76238;PMS7003;65043;48.392;-4.472;2024-01-30T03:42:20;0.00;0.00;0.00
76238;PMS7003;65043;48.392;-4.472;2024-01-30T03:44:47;1.00;0.00;0.00
76238;PMS7003;65043;48.392;-4.472;2024-01-30T03:47:13;0.00;0.00;0.00
76238;PMS7003;65043;48.392;-4.472;2024-01-30T03:49:38;1.00;0.00;0.00
76238;PMS7003;65043;48.392;-4.472;2024-01-30T03:52:03;0.00;0.00;0.00
76238;PMS7003;65043;48.392;-4.472;2024-01-30T03:54:29;0.00;0.00;0.00
76238;PMS7003;65043;48.392;-4.472;2024-01-30T03:56:54;1.50;0.00;0.00
76238;PMS7003;65043;48.392;-4.472;2024-01-30T03:59:20;2.00;0.00;0.00
76238;PMS7003;65043;48.392;-4.472;2024-01-30T04:01:49;0.50;0.00;0.00
76238;PMS7003;65043;48.392;-4.472;2024-01-30T04:04:16;0.00;0.00;0.00
76238;PMS7003;65043;48.392;-4.472;2024-01-30T04:06:43;0.00;0.00;0.00
76238;PMS7003;65043;48.392;-4.472;2024-01-30T04:09:09;1.00;0.00;0.00
76238;PMS7003;65043;48.392;-4.472;2024-01-30T04:11:35;0.00;0.00;0.00
76238;PMS7003;65043;48.392;-4.472;2024-01-30T04:14:00;0.00;0.00;0.00
76238;PMS7003;65043;48.392;-4.472;2024-01-30T04:16:26;2.00;0.00;0.00
76238;PMS7003;65043;48.392;-4.472;2024-01-30T04:18:51;0.00;0.00;0.00
76238;PMS7003;65043;48.392;-4.472;2024-01-30T04:21:17;1.75;0.75;0.00
76238;PMS7003;65043;48.392;-4.472;2024-01-30T04:23:43;2.75;0.00;0.00
76238;PMS7003;65043;48.392;-4.472;2024-01-30T04:26:08;0.00;0.00;0.00
76238;PMS7003;65043;48.392;-4.472;2024-01-30T04:28:33;0.00;0.00;0.00
76238;PMS7003;65043;48.392;-4.472;2024-01-30T04:30:59;0.00;0.00;0.00
76238;PMS7003;65043;48.392;-4.472;2024-01-30T04:33:24;0.00;0.00;0.00
76238;PMS7003;65043;48.392;-4.472;2024-01-30T04:35:50;1.00;0.00;0.00
76238;PMS7003;65043;48.392;-4.472;2024-01-30T04:38:15;0.00;0.00;0.00
76238;PMS7003;65043;48.392;-4.472;2024-01-30T04:40:41;1.25;1.25;0.00
76238;PMS7003;65043;48.392;-4.472;2024-01-30T04:43:06;1.00;1.00;1.00
76238;PMS7003;65043;48.392;-4.472;2024-01-30T04:45:32;1.75;0.25;0.00
76238;PMS7003;65043;48.392;-4.472;2024-01-30T04:47:57;2.00;2.00;1.00
76238;PMS7003;65043;48.392;-4.472;2024-01-30T04:50:23;1.50;1.50;1.00
76238;PMS7003;65043;48.392;-4.472;2024-01-30T04:52:48;1.00;1.00;1.00
76238;PMS7003;65043;48.392;-4.472;2024-01-30T04:55:14;1.00;1.00;0.00
76238;PMS7003;65043;48.392;-4.472;2024-01-30T04:57:39;0.50;0.00;0.00
76238;PMS7003;65043;48.392;-4.472;2024-01-30T05:00:05;0.50;0.50;0.00
76238;PMS7003;65043;48.392;-4.472;2024-01-30T05:02:31;0.75;0.75;0.00
76238;PMS7003;65043;48.392;-4.472;2024-01-30T05:04:57;1.00;0.00;0.00
76238;PMS7003;65043;48.392;-4.472;2024-01-30T05:07:24;1.00;1.00;0.00
76238;PMS7003;65043;48.392;-4.472;2024-01-30T05:09:49;1.00;0.00;0.00
76238;PMS7003;65043;48.392;-4.472;2024-01-30T05:12:15;0.00;0.00;0.00
76238;PMS7003;65043;48.392;-4.472;2024-01-30T05:14:40;0.00;0.00;0.00
76238;PMS7003;65043;48.392;-4.472;2024-01-30T05:17:06;0.00;0.00;0.00
76238;PMS7003;65043;48.392;-4.472;2024-01-30T05:19:33;0.00;0.00;0.00
76238;PMS7003;65043;48.392;-4.472;2024-01-30T05:21:58;1.50;1.00;0.00
76238;PMS7003;65043;48.392;-4.472;2024-01-30T05:24:24;1.50;1.00;0.25
76238;PMS7003;65043;48.392;-4.472;2024-01-30T05:26:49;1.00;1.00;0.00
76238;PMS7003;65043;48.392;-4.472;2024-01-30T05:29:16;0.00;0.00;0.00
76238;PMS7003;65043;48.392;-4.472;2024-01-30T05:31:41;2.00;2.00;0.00
76238;PMS7003;65043;48.392;-4.472;2024-01-30T05:34:07;0.25;0.25;0.00
76238;PMS7003;65043;48.392;-4.472;2024-01-30T05:36:34;0.00;0.00;0.00
76238;PMS7003;65043;48.392;-4.472;2024-01-30T05:39:00;0.25;0.25;0.00
76238;PMS7003;65043;48.392;-4.472;2024-01-30T05:41:25;1.75;1.00;0.00
76238;PMS7003;65043;48.392;-4.472;2024-01-30T05:43:54;1.25;1.25;1.00
76238;PMS7003;65043;48.392;-4.472;2024-01-30T05:46:19;1.25;1.00;1.00
76238;PMS7003;65043;48.392;-4.472;2024-01-30T05:48:44;2.00;0.75;0.00
76238;PMS7003;65043;48.392;-4.472;2024-01-30T05:51:10;3.25;2.25;1.75
76238;PMS7003;65043;48.392;-4.472;2024-01-30T05:53:35;2.00;1.00;1.00
76238;PMS7003;65043;48.392;-4.472;2024-01-30T05:56:01;2.75;2.00;2.00
76238;PMS7003;65043;48.392;-4.472;2024-01-30T05:58:27;2.50;2.50;2.25
76238;PMS7003;65043;48.392;-4.472;2024-01-30T06:00:53;4.75;4.00;2.50
76238;PMS7003;65043;48.392;-4.472;2024-01-30T06:03:18;0.25;0.25;0.00
76238;PMS7003;65043;48.392;-4.472;2024-01-30T06:05:43;1.75;1.75;1.25
76238;PMS7003;65043;48.392;-4.472;2024-01-30T06:08:09;3.00;1.50;1.00
76238;PMS7003;65043;48.392;-4.472;2024-01-30T06:10:35;2.00;2.00;1.00
76238;PMS7003;65043;48.392;-4.472;2024-01-30T06:13:00;3.00;2.25;2.00
76238;PMS7003;65043;48.392;-4.472;2024-01-30T06:15:26;2.25;2.25;1.00
76238;PMS7003;65043;48.392;-4.472;2024-01-30T06:17:51;2.00;2.00;1.75
76238;PMS7003;65043;48.392;-4.472;2024-01-30T06:20:17;1.75;1.00;1.00
76238;PMS7003;65043;48.392;-4.472;2024-01-30T06:22:43;2.50;2.50;0.25
76238;PMS7003;65043;48.392;-4.472;2024-01-30T06:25:08;1.00;1.00;0.00
76238;PMS7003;65043;48.392;-4.472;2024-01-30T06:27:34;3.00;1.75;1.00
76238;PMS7003;65043;48.392;-4.472;2024-01-30T06:29:59;2.25;2.25;1.25
76238;PMS7003;65043;48.392;-4.472;2024-01-30T06:32:25;2.50;2.25;1.00
76238;PMS7003;65043;48.392;-4.472;2024-01-30T06:34:52;3.00;1.75;1.00
76238;PMS7003;65043;48.392;-4.472;2024-01-30T06:37:17;5.25;4.00;1.00
76238;PMS7003;65043;48.392;-4.472;2024-01-30T06:39:43;3.00;2.50;2.00
76238;PMS7003;65043;48.392;-4.472;2024-01-30T06:42:09;2.00;2.00;1.50
76238;PMS7003;65043;48.392;-4.472;2024-01-30T06:44:34;1.50;1.00;0.00
76238;PMS7003;65043;48.392;-4.472;2024-01-30T06:47:00;1.75;1.00;0.00
76238;PMS7003;65043;48.392;-4.472;2024-01-30T06:49:25;2.00;2.00;2.00
76238;PMS7003;65043;48.392;-4.472;2024-01-30T06:51:51;3.75;1.00;1.00
76238;PMS7003;65043;48.392;-4.472;2024-01-30T06:54:16;2.00;0.00;0.00
76238;PMS7003;65043;48.392;-4.472;2024-01-30T06:56:42;2.25;2.00;1.00
76238;PMS7003;65043;48.392;-4.472;2024-01-30T06:59:07;1.50;1.25;1.00
76238;PMS7003;65043;48.392;-4.472;2024-01-30T07:01:33;2.00;2.00;2.00
76238;PMS7003;65043;48.392;-4.472;2024-01-30T07:03:58;1.75;1.75;1.00
76238;PMS7003;65043;48.392;-4.472;2024-01-30T07:06:24;1.50;0.75;0.75
76238;PMS7003;65043;48.392;-4.472;2024-01-30T07:08:49;2.00;2.00;1.00
76238;PMS7003;65043;48.392;-4.472;2024-01-30T07:11:18;1.25;1.00;0.00
76238;PMS7003;65043;48.392;-4.472;2024-01-30T07:13:45;2.25;1.00;1.00
76238;PMS7003;65043;48.392;-4.472;2024-01-30T07:16:11;2.25;2.00;1.00
76238;PMS7003;65043;48.392;-4.472;2024-01-30T07:18:36;2.00;2.00;1.00
76238;PMS7003;65043;48.392;-4.472;2024-01-30T07:21:01;3.50;2.00;1.50
76238;PMS7003;65043;48.392;-4.472;2024-01-30T07:23:27;4.00;3.00;2.00
76238;PMS7003;65043;48.392;-4.472;2024-01-30T07:25:54;4.75;3.00;1.75
76238;PMS7003;65043;48.392;-4.472;2024-01-30T07:28:20;2.00;2.00;2.00
76238;PMS7003;65043;48.392;-4.472;2024-01-30T07:30:45;3.00;2.50;1.00
76238;PMS7003;65043;48.392;-4.472;2024-01-30T07:33:12;4.00;3.25;2.00
76238;PMS7003;65043;48.392;-4.472;2024-01-30T07:35:37;1.25;1.25;1.00
76238;PMS7003;65043;48.392;-4.472;2024-01-30T07:38:03;2.00;1.50;1.00
76238;PMS7003;65043;48.392;-4.472;2024-01-30T07:40:28;3.00;3.00;2.00
76238;PMS7003;65043;48.392;-4.472;2024-01-30T07:42:54;2.75;1.50;1.00
76238;PMS7003;65043;48.392;-4.472;2024-01-30T07:45:20;3.25;2.00;2.00
76238;PMS7003;65043;48.392;-4.472;2024-01-30T07:47:50;0.75;0.75;0.00
76238;PMS7003;65043;48.392;-4.472;2024-01-30T07:50:16;1.00;1.00;0.50
76238;PMS7003;65043;48.392;-4.472;2024-01-30T07:52:42;2.00;2.00;1.00
76238;PMS7003;65043;48.392;-4.472;2024-01-30T07:55:29;2.25;2.25;1.50
76238;PMS7003;65043;48.392;-4.472;2024-01-30T07:58:16;2.50;2.00;1.00
76238;PMS7003;65043;48.392;-4.472;2024-01-30T08:00:41;1.75;1.75;1.00
76238;PMS7003;65043;48.392;-4.472;2024-01-30T08:03:07;2.00;2.00;1.00
76238;PMS7003;65043;48.392;-4.472;2024-01-30T08:05:32;3.75;3.00;2.00
76238;PMS7003;65043;48.392;-4.472;2024-01-30T08:07:58;3.75;2.00;1.00
76238;PMS7003;65043;48.392;-4.472;2024-01-30T08:10:23;1.00;1.00;1.00
76238;PMS7003;65043;48.392;-4.472;2024-01-30T08:12:48;1.50;1.50;1.00
76238;PMS7003;65043;48.392;-4.472;2024-01-30T08:15:14;3.00;2.50;1.75
76238;PMS7003;65043;48.392;-4.472;2024-01-30T08:17:40;6.00;3.00;2.00
76238;PMS7003;65043;48.392;-4.472;2024-01-30T08:20:05;4.75;4.00;3.00
76238;PMS7003;65043;48.392;-4.472;2024-01-30T08:22:33;4.25;4.25;2.00
76238;PMS7003;65043;48.392;-4.472;2024-01-30T08:24:58;7.25;5.50;4.00
76238;PMS7003;65043;48.392;-4.472;2024-01-30T08:27:24;7.75;6.50;5.00
76238;PMS7003;65043;48.392;-4.472;2024-01-30T08:29:49;4.25;4.00;2.00
76238;PMS7003;65043;48.392;-4.472;2024-01-30T08:32:15;4.25;3.75;2.00
76238;PMS7003;65043;48.392;-4.472;2024-01-30T08:34:41;7.75;3.00;1.50
76238;PMS7003;65043;48.392;-4.472;2024-01-30T08:37:07;1.75;1.00;1.00
76238;PMS7003;65043;48.392;-4.472;2024-01-30T08:39:32;1.00;1.00;1.00
76238;PMS7003;65043;48.392;-4.472;2024-01-30T08:41:57;4.25;2.75;1.00
76238;PMS7003;65043;48.392;-4.472;2024-01-30T08:44:23;1.75;1.75;1.00
76238;PMS7003;65043;48.392;-4.472;2024-01-30T08:46:48;2.00;1.00;0.25
76238;PMS7003;65043;48.392;-4.472;2024-01-30T08:49:16;2.50;1.00;1.00
76238;PMS7003;65043;48.392;-4.472;2024-01-30T08:51:41;2.00;2.00;1.00
76238;PMS7003;65043;48.392;-4.472;2024-01-30T08:54:07;1.75;0.00;0.00
76238;PMS7003;65043;48.392;-4.472;2024-01-30T08:56:33;2.00;2.00;1.00
76238;PMS7003;65043;48.392;-4.472;2024-01-30T08:58:58;1.25;1.00;1.00
76238;PMS7003;65043;48.392;-4.472;2024-01-30T09:01:24;2.25;1.25;1.00
76238;PMS7003;65043;48.392;-4.472;2024-01-30T09:03:50;2.00;2.00;1.00
76238;PMS7003;65043;48.392;-4.472;2024-01-30T09:06:16;2.00;1.75;1.50
76238;PMS7003;65043;48.392;-4.472;2024-01-30T09:08:41;3.50;3.25;1.25
76238;PMS7003;65043;48.392;-4.472;2024-01-30T09:11:11;1.00;1.00;1.00
76238;PMS7003;65043;48.392;-4.472;2024-01-30T09:13:37;3.00;1.00;1.00
76238;PMS7003;65043;48.392;-4.472;2024-01-30T09:16:03;3.00;2.00;1.00
76238;PMS7003;65043;48.392;-4.472;2024-01-30T09:18:29;4.00;2.00;1.00
76238;PMS7003;65043;48.392;-4.472;2024-01-30T09:20:54;3.00;3.00;1.50
76238;PMS7003;65043;48.392;-4.472;2024-01-30T09:23:19;2.50;1.25;1.25
76238;PMS7003;65043;48.392;-4.472;2024-01-30T09:25:45;3.00;3.00;2.00
76238;PMS7003;65043;48.392;-4.472;2024-01-30T09:28:11;3.00;2.75;1.75
76238;PMS7003;65043;48.392;-4.472;2024-01-30T09:30:36;1.00;1.00;0.00
76238;PMS7003;65043;48.392;-4.472;2024-01-30T09:33:02;3.50;3.00;1.75
76238;PMS7003;65043;48.392;-4.472;2024-01-30T09:35:27;3.00;2.00;1.00
76238;PMS7003;65043;48.392;-4.472;2024-01-30T09:37:53;4.00;2.00;1.75
76238;PMS7003;65043;48.392;-4.472;2024-01-30T09:40:18;2.50;2.50;1.00
76238;PMS7003;65043;48.392;-4.472;2024-01-30T09:42:48;3.75;1.00;0.50
76238;PMS7003;65043;48.392;-4.472;2024-01-30T09:45:15;2.00;0.75;0.00
76238;PMS7003;65043;48.392;-4.472;2024-01-30T09:47:43;3.00;2.75;1.00
76238;PMS7003;65043;48.392;-4.472;2024-01-30T09:50:10;2.00;2.00;2.00
76238;PMS7003;65043;48.392;-4.472;2024-01-30T09:52:36;4.00;3.00;1.00
76238;PMS7003;65043;48.392;-4.472;2024-01-30T09:55:03;2.25;2.25;2.00
76238;PMS7003;65043;48.392;-4.472;2024-01-30T09:57:29;4.50;2.00;2.00
76238;PMS7003;65043;48.392;-4.472;2024-01-30T09:59:55;5.25;3.50;3.00
76238;PMS7003;65043;48.392;-4.472;2024-01-30T10:02:21;6.50;2.00;1.00
76238;PMS7003;65043;48.392;-4.472;2024-01-30T10:04:47;3.75;3.00;2.75
76238;PMS7003;65043;48.392;-4.472;2024-01-30T10:07:14;2.00;2.00;2.00
76238;PMS7003;65043;48.392;-4.472;2024-01-30T10:09:40;6.75;4.00;2.00
76238;PMS7003;65043;48.392;-4.472;2024-01-30T10:12:06;3.00;3.00;2.25
76238;PMS7003;65043;48.392;-4.472;2024-01-30T10:14:33;2.75;1.50;1.25
76238;PMS7003;65043;48.392;-4.472;2024-01-30T10:17:00;1.00;1.00;1.00
76238;PMS7003;65043;48.392;-4.472;2024-01-30T10:19:26;2.75;1.25;1.00
76238;PMS7003;65043;48.392;-4.472;2024-01-30T10:21:51;3.00;2.00;1.00
76238;PMS7003;65043;48.392;-4.472;2024-01-30T10:24:17;2.00;1.25;1.00
76238;PMS7003;65043;48.392;-4.472;2024-01-30T10:26:46;3.00;0.50;0.00
76238;PMS7003;65043;48.392;-4.472;2024-01-30T10:29:12;2.00;1.25;0.00
76238;PMS7003;65043;48.392;-4.472;2024-01-30T10:31:37;1.50;1.00;0.75
76238;PMS7003;65043;48.392;-4.472;2024-01-30T10:34:02;2.75;1.00;0.00
76238;PMS7003;65043;48.392;-4.472;2024-01-30T10:36:28;1.50;0.00;0.00
76238;PMS7003;65043;48.392;-4.472;2024-01-30T10:38:59;1.00;0.75;0.00
76238;PMS7003;65043;48.392;-4.472;2024-01-30T10:41:27;0.25;0.25;0.00
76238;PMS7003;65043;48.392;-4.472;2024-01-30T10:44:07;2.00;0.50;0.00
76238;PMS7003;65043;48.392;-4.472;2024-01-30T10:46:35;3.00;0.25;0.00
76238;PMS7003;65043;48.392;-4.472;2024-01-30T10:49:03;2.00;1.00;0.00
76238;PMS7003;65043;48.392;-4.472;2024-01-30T10:51:29;2.00;2.00;1.00
76238;PMS7003;65043;48.392;-4.472;2024-01-30T10:53:56;4.00;0.50;0.50
76238;PMS7003;65043;48.392;-4.472;2024-01-30T10:56:23;1.50;1.00;1.00
76238;PMS7003;65043;48.392;-4.472;2024-01-30T10:58:49;4.00;2.00;1.00
76238;PMS7003;65043;48.392;-4.472;2024-01-30T11:01:17;2.00;2.00;1.00
76238;PMS7003;65043;48.392;-4.472;2024-01-30T11:03:44;3.50;2.00;1.00
76238;PMS7003;65043;48.392;-4.472;2024-01-30T11:06:10;2.50;0.50;0.00
76238;PMS7003;65043;48.392;-4.472;2024-01-30T11:08:43;1.50;1.50;1.25
76238;PMS7003;65043;48.392;-4.472;2024-01-30T11:11:09;1.25;1.00;1.00
76238;PMS7003;65043;48.392;-4.472;2024-01-30T11:13:35;0.75;0.75;0.50
76238;PMS7003;65043;48.392;-4.472;2024-01-30T11:16:02;1.00;0.00;0.00
76238;PMS7003;65043;48.392;-4.472;2024-01-30T11:18:29;1.25;1.25;0.75
76238;PMS7003;65043;48.392;-4.472;2024-01-30T11:20:59;1.50;0.00;0.00
76238;PMS7003;65043;48.392;-4.472;2024-01-30T11:23:26;1.00;1.00;0.00
76238;PMS7003;65043;48.392;-4.472;2024-01-30T11:25:53;3.00;0.50;0.00
76238;PMS7003;65043;48.392;-4.472;2024-01-30T11:28:20;0.00;0.00;0.00
76238;PMS7003;65043;48.392;-4.472;2024-01-30T11:30:47;1.50;0.00;0.00
76238;PMS7003;65043;48.392;-4.472;2024-01-30T11:33:15;1.00;1.00;0.00
76238;PMS7003;65043;48.392;-4.472;2024-01-30T11:35:56;1.50;0.00;0.00
76238;PMS7003;65043;48.392;-4.472;2024-01-30T11:38:23;0.00;0.00;0.00
76238;PMS7003;65043;48.392;-4.472;2024-01-30T11:40:51;0.75;0.75;0.00
76238;PMS7003;65043;48.392;-4.472;2024-01-30T11:43:17;1.00;0.00;0.00
76238;PMS7003;65043;48.392;-4.472;2024-01-30T11:45:44;0.00;0.00;0.00
76238;PMS7003;65043;48.392;-4.472;2024-01-30T11:48:11;0.75;0.75;0.00
76238;PMS7003;65043;48.392;-4.472;2024-01-30T11:50:38;2.00;0.50;0.25
76238;PMS7003;65043;48.392;-4.472;2024-01-30T11:53:04;1.00;0.75;0.00
76238;PMS7003;65043;48.392;-4.472;2024-01-30T11:55:30;1.25;1.25;1.00
76238;PMS7003;65043;48.392;-4.472;2024-01-30T11:57:59;4.25;1.25;1.00
76238;PMS7003;65043;48.392;-4.472;2024-01-30T12:00:25;0.50;0.00;0.00
76238;PMS7003;65043;48.392;-4.472;2024-01-30T12:02:51;2.00;1.00;0.25
76238;PMS7003;65043;48.392;-4.472;2024-01-30T12:05:23;3.50;1.50;0.00
76238;PMS7003;65043;48.392;-4.472;2024-01-30T12:07:49;0.00;0.00;0.00
76238;PMS7003;65043;48.392;-4.472;2024-01-30T12:10:15;0.50;0.50;0.25
76238;PMS7003;65043;48.392;-4.472;2024-01-30T12:12:43;1.00;0.75;0.00
76238;PMS7003;65043;48.392;-4.472;2024-01-30T12:15:10;0.25;0.25;0.00
76238;PMS7003;65043;48.392;-4.472;2024-01-30T12:17:36;1.00;0.75;0.00
76238;PMS7003;65043;48.392;-4.472;2024-01-30T12:22:41;0.25;0.25;0.00
76238;PMS7003;65043;48.392;-4.472;2024-01-30T12:27:36;1.00;1.00;0.00
76238;PMS7003;65043;48.392;-4.472;2024-01-30T12:30:06;1.75;1.00;0.00
76238;PMS7003;65043;48.392;-4.472;2024-01-30T12:32:34;0.00;0.00;0.00
76238;PMS7003;65043;48.392;-4.472;2024-01-30T12:35:06;0.00;0.00;0.00
76238;PMS7003;65043;48.392;-4.472;2024-01-30T12:37:33;1.00;1.00;0.00
76238;PMS7003;65043;48.392;-4.472;2024-01-30T12:39:58;1.25;0.25;0.00
76238;PMS7003;65043;48.392;-4.472;2024-01-30T12:42:24;1.00;0.00;0.00
76238;PMS7003;65043;48.392;-4.472;2024-01-30T12:44:52;2.00;0.25;0.00
76238;PMS7003;65043;48.392;-4.472;2024-01-30T12:47:18;1.25;1.25;0.00
76238;PMS7003;65043;48.392;-4.472;2024-01-30T12:49:46;2.25;1.00;0.00
76238;PMS7003;65043;48.392;-4.472;2024-01-30T12:52:11;2.75;2.00;1.00
76238;PMS7003;65043;48.392;-4.472;2024-01-30T12:54:38;1.25;1.25;1.00
76238;PMS7003;65043;48.392;-4.472;2024-01-30T12:57:04;2.00;0.00;0.00
76238;PMS7003;65043;48.392;-4.472;2024-01-30T12:59:30;2.00;1.75;1.00
76238;PMS7003;65043;48.392;-4.472;2024-01-30T13:01:56;1.00;1.00;1.00
76238;PMS7003;65043;48.392;-4.472;2024-01-30T13:04:22;0.00;0.00;0.00
76238;PMS7003;65043;48.392;-4.472;2024-01-30T13:06:48;1.00;1.00;1.00
76238;PMS7003;65043;48.392;-4.472;2024-01-30T13:09:13;2.50;1.00;0.50
76238;PMS7003;65043;48.392;-4.472;2024-01-30T13:11:39;0.00;0.00;0.00
76238;PMS7003;65043;48.392;-4.472;2024-01-30T13:14:04;0.75;0.25;0.00
76238;PMS7003;65043;48.392;-4.472;2024-01-30T13:16:29;1.50;0.00;0.00
76238;PMS7003;65043;48.392;-4.472;2024-01-30T13:18:55;1.00;1.00;0.00
76238;PMS7003;65043;48.392;-4.472;2024-01-30T13:21:21;0.00;0.00;0.00
76238;PMS7003;65043;48.392;-4.472;2024-01-30T13:23:46;0.00;0.00;0.00
76238;PMS7003;65043;48.392;-4.472;2024-01-30T13:26:12;0.00;0.00;0.00
76238;PMS7003;65043;48.392;-4.472;2024-01-30T13:28:37;1.00;1.00;0.00
76238;PMS7003;65043;48.392;-4.472;2024-01-30T13:31:03;2.00;1.25;0.00
76238;PMS7003;65043;48.392;-4.472;2024-01-30T13:33:30;2.00;0.00;0.00
76238;PMS7003;65043;48.392;-4.472;2024-01-30T13:35:56;2.00;1.00;0.00
76238;PMS7003;65043;48.392;-4.472;2024-01-30T13:38:21;1.00;0.00;0.00
76238;PMS7003;65043;48.392;-4.472;2024-01-30T13:40:47;0.00;0.00;0.00
76238;PMS7003;65043;48.392;-4.472;2024-01-30T13:43:12;1.00;1.00;0.00
76238;PMS7003;65043;48.392;-4.472;2024-01-30T13:45:37;1.00;1.00;0.00
76238;PMS7003;65043;48.392;-4.472;2024-01-30T13:48:03;0.00;0.00;0.00
76238;PMS7003;65043;48.392;-4.472;2024-01-30T13:50:29;0.00;0.00;0.00
76238;PMS7003;65043;48.392;-4.472;2024-01-30T13:52:54;3.00;1.00;0.00
76238;PMS7003;65043;48.392;-4.472;2024-01-30T13:55:20;1.00;1.00;0.00
76238;PMS7003;65043;48.392;-4.472;2024-01-30T13:57:45;1.50;1.25;1.00
76238;PMS7003;65043;48.392;-4.472;2024-01-30T14:00:11;1.75;1.00;1.00
76238;PMS7003;65043;48.392;-4.472;2024-01-30T14:02:37;2.75;1.75;1.00
76238;PMS7003;65043;48.392;-4.472;2024-01-30T14:05:03;2.00;1.00;0.00
76238;PMS7003;65043;48.392;-4.472;2024-01-30T14:07:29;0.25;0.25;0.25